Time;durP1;ratioP1;P1;durP2;ratioP2;P2;SDS_P1;SDS_P2;PMS_P1;PMS_P2;Temp;Humidity;BMP_temperature;BMP_pressure;BME280_temperature;BME280_humidity;BME280_pressure;Samples;Min_cycle;Max_cycle;Signal;HPM_P1;HPM_P2
2023/05/05 00:00:53;;;;;;;7.78;5.90;;;13.60;1.00;;;;;;5132971;28;20236;-73
2023/05/05 00:03:20;;;;;;;6.50;5.00;;;13.50;1.00;;;;;;5134740;27;20628;-72
2023/05/05 00:05:48;;;;;;;8.15;5.32;;;13.50;1.00;;;;;;5134262;27;20199;-72
2023/05/05 00:08:14;;;;;;;11.07;5.65;;;13.40;99.90;;;;;;5134195;27;20200;-72
2023/05/05 00:10:43;;;;;;;7.80;5.35;;;13.40;99.90;;;;;;5133526;27;20652;-72
2023/05/05 00:13:09;;;;;;;7.50;5.30;;;13.40;99.90;;;;;;5138034;27;20202;-71
2023/05/05 00:15:35;;;;;;;8.00;5.68;;;13.40;1.00;;;;;;5138394;27;20171;-72
2023/05/05 00:18:01;;;;;;;7.80;5.38;;;13.40;1.00;;;;;;5136990;27;20254;-72
2023/05/05 00:20:27;;;;;;;8.85;5.03;;;13.30;99.90;;;;;;5138034;27;20184;-72
2023/05/05 00:22:52;;;;;;;7.90;5.53;;;13.40;99.90;;;;;;5138290;27;20168;-72
2023/05/05 00:25:18;;;;;;;7.90;5.40;;;13.40;1.00;;;;;;5137062;27;20175;-72
2023/05/05 00:27:44;;;;;;;8.77;6.07;;;13.50;1.00;;;;;;5137939;27;20171;-74
2023/05/05 00:30:10;;;;;;;8.95;5.78;;;13.50;1.00;;;;;;5137672;27;20192;-72
2023/05/05 00:32:36;;;;;;;7.63;5.32;;;13.50;1.00;;;;;;5136624;27;20179;-72
2023/05/05 00:35:02;;;;;;;7.75;5.68;;;13.50;99.90;;;;;;5138042;27;20203;-72
2023/05/05 00:37:27;;;;;;;8.23;5.53;;;13.50;1.00;;;;;;5136509;27;20263;-72
2023/05/05 00:39:53;;;;;;;7.05;5.90;;;13.50;1.00;;;;;;5137679;27;20191;-72
2023/05/05 00:42:19;;;;;;;6.53;5.15;;;13.50;1.00;;;;;;5136474;27;20168;-72
2023/05/05 00:44:44;;;;;;;9.05;4.97;;;13.50;1.00;;;;;;5137860;27;20205;-72
2023/05/05 00:47:12;;;;;;;7.65;5.70;;;13.40;1.00;;;;;;5138237;27;20576;-72
2023/05/05 00:49:38;;;;;;;6.53;5.50;;;13.40;1.00;;;;;;5136570;27;20644;-72
2023/05/05 00:52:06;;;;;;;9.05;5.88;;;13.40;1.00;;;;;;5138368;27;20176;-72
2023/05/05 00:54:36;;;;;;;7.80;5.63;;;13.30;1.00;;;;;;5136175;27;20207;-71
2023/05/05 00:57:02;;;;;;;8.68;5.97;;;13.30;1.00;;;;;;5137840;27;20513;-72
2023/05/05 00:59:33;;;;;;;6.53;5.43;;;13.20;1.00;;;;;;5137482;27;20203;-72
2023/05/05 01:01:58;;;;;;;6.40;5.28;;;13.20;1.00;;;;;;5137410;27;20574;-71
2023/05/05 01:04:27;;;;;;;5.80;4.90;;;13.20;1.00;;;;;;5135971;27;20231;-71
2023/05/05 01:07:05;;;;;;;7.00;5.25;;;13.20;1.00;;;;;;5137406;27;20168;-71
2023/05/05 01:09:37;;;;;;;8.23;5.93;;;13.30;1.00;;;;;;5137097;27;20196;-71
2023/05/05 01:12:21;;;;;;;7.95;5.45;;;13.20;1.00;;;;;;5137560;27;20189;-71
2023/05/05 01:15:00;;;;;;;8.48;5.57;;;13.20;1.00;;;;;;5135710;27;20192;-71
2023/05/05 01:17:42;;;;;;;8.85;5.82;;;13.20;1.00;;;;;;5137327;27;20156;-71
2023/05/05 01:20:43;;;;;;;7.13;5.45;;;13.10;1.00;;;;;;5137553;27;20206;-71
2023/05/05 01:23:17;;;;;;;7.43;5.63;;;13.10;1.00;;;;;;5128729;27;20183;-71
2023/05/05 01:26:18;;;;;;;7.70;5.40;;;13.10;1.00;;;;;;5137465;27;20156;-71
2023/05/05 01:29:11;;;;;;;6.95;5.57;;;13.00;1.00;;;;;;5137516;27;20167;-71
2023/05/05 01:31:39;;;;;;;9.00;6.18;;;12.90;1.00;;;;;;5137627;27;20205;-71
2023/05/05 01:34:13;;;;;;;9.95;5.82;;;13.00;1.00;;;;;;5137622;27;20636;-71
2023/05/05 01:36:41;;;;;;;7.07;5.32;;;13.00;1.00;;;;;;5138172;27;20175;-71
2023/05/05 01:39:13;;;;;;;6.70;5.70;;;13.00;1.00;;;;;;5138041;27;20184;-71
2023/05/05 01:41:42;;;;;;;10.40;5.80;;;13.00;14.60;;;;;;5135817;27;20207;-71
2023/05/05 01:44:10;;;;;;;7.30;5.70;;;13.10;1.00;;;;;;5136834;27;20172;-71
2023/05/05 01:46:36;;;;;;;7.93;5.60;;;13.10;1.00;;;;;;5136721;27;20548;-71
2023/05/05 01:49:03;;;;;;;9.35;6.03;;;13.10;1.00;;;;;;5136726;27;20253;-71
2023/05/05 01:51:31;;;;;;;8.65;5.95;;;13.10;1.00;;;;;;5136200;27;20171;-71
2023/05/05 01:53:59;;;;;;;6.28;5.55;;;13.10;1.00;;;;;;5135012;27;20199;-71
2023/05/05 01:56:26;;;;;;;6.95;5.80;;;13.20;1.00;;;;;;5135037;27;20179;-71
2023/05/05 01:58:54;;;;;;;8.02;6.28;;;13.20;1.00;;;;;;5134704;27;20195;-71
2023/05/05 02:01:23;;;;;;;8.15;5.82;;;13.20;1.00;;;;;;5134858;27;20187;-71
2023/05/05 02:03:51;;;;;;;7.60;6.00;;;13.20;1.00;;;;;;5134895;27;20175;-71
2023/05/05 02:06:19;;;;;;;7.07;5.70;;;13.20;1.00;;;;;;5135000;27;20360;-69
2023/05/05 02:08:47;;;;;;;7.30;5.93;;;13.10;1.00;;;;;;5135714;27;20172;-70
2023/05/05 02:11:14;;;;;;;8.00;6.32;;;13.10;44.30;;;;;;5136161;27;20171;-69
2023/05/05 02:13:41;;;;;;;8.88;6.32;;;13.20;1.00;;;;;;5135792;27;20184;-69
2023/05/05 02:16:09;;;;;;;10.57;5.90;;;13.20;1.00;;;;;;5134454;27;20176;-69
2023/05/05 02:18:35;;;;;;;8.27;5.45;;;13.20;1.00;;;;;;5135653;27;20696;-69
2023/05/05 02:21:02;;;;;;;6.35;5.55;;;13.20;1.00;;;;;;5134268;27;20243;-69
2023/05/05 02:23:28;;;;;;;8.63;5.88;;;13.20;1.00;;;;;;5135800;27;20179;-69
2023/05/05 02:26:00;;;;;;;6.90;5.30;;;13.10;24.40;;;;;;5135659;27;20175;-69
2023/05/05 02:28:44;;;;;;;6.95;5.30;;;13.10;99.90;;;;;;5135953;27;20548;-69
2023/05/05 02:31:12;;;;;;;9.77;6.30;;;13.10;99.90;;;;;;5135475;27;20183;-69
2023/05/05 02:33:40;;;;;;;7.60;5.55;;;13.00;99.90;;;;;;5136566;27;20649;-70
2023/05/05 02:36:24;;;;;;;10.23;5.95;;;13.00;99.90;;;;;;5135828;27;20180;-69
2023/05/05 02:39:00;;;;;;;8.27;6.20;;;12.90;99.90;;;;;;5133920;27;20203;-70
2023/05/05 02:41:28;;;;;;;11.35;6.57;;;13.00;99.90;;;;;;5133888;27;20183;-69
2023/05/05 02:43:56;;;;;;;7.22;5.78;;;13.00;99.90;;;;;;5135253;27;20190;-69
2023/05/05 02:46:22;;;;;;;9.45;5.93;;;12.90;99.90;;;;;;5135106;27;20572;-69
2023/05/05 02:48:48;;;;;;;8.45;5.53;;;12.90;99.90;;;;;;5135609;27;20183;-69
2023/05/05 02:51:13;;;;;;;7.32;5.43;;;13.00;99.90;;;;;;5133990;27;20236;-69
2023/05/05 02:53:39;;;;;;;6.72;5.60;;;12.90;99.90;;;;;;5133567;27;20195;-70
2023/05/05 02:56:24;;;;;;;7.70;6.35;;;12.90;99.90;;;;;;5135044;27;20170;-69
2023/05/05 02:59:35;;;;;;;7.70;5.90;;;12.90;46.90;;;;;;5134877;27;20221;-70
2023/05/05 03:02:31;;;;;;;9.32;5.95;;;12.90;99.90;;;;;;5132600;27;20200;-69
2023/05/05 03:05:08;;;;;;;8.07;5.85;;;13.00;1.00;;;;;;5135355;27;20180;-69
2023/05/05 03:07:44;;;;;;;6.10;5.20;;;13.00;1.00;;;;;;5134955;27;20160;-69
2023/05/05 03:10:17;;;;;;;8.25;5.03;;;13.00;1.00;;;;;;5133339;27;20195;-69
2023/05/05 03:12:56;;;;;;;6.80;5.32;;;13.20;99.90;;;;;;5134054;27;20178;-69
2023/05/05 03:15:29;;;;;;;8.30;5.50;;;13.30;81.20;;;;;;5133467;27;20180;-69
2023/05/05 03:17:57;;;;;;;6.95;5.63;;;13.40;32.10;;;;;;5134646;27;20179;-68
2023/05/05 03:20:23;;;;;;;8.05;5.57;;;13.40;99.90;;;;;;5134925;27;20219;-69
2023/05/05 03:22:50;;;;;;;7.30;4.80;;;13.40;99.90;;;;;;5134869;27;20175;-71
2023/05/05 03:25:15;;;;;;;7.20;5.07;;;13.40;17.90;;;;;;5133349;27;20199;-71
2023/05/05 03:27:43;;;;;;;7.25;5.43;;;13.50;1.00;;;;;;5133330;27;20202;-71
2023/05/05 03:30:09;;;;;;;11.88;5.60;;;13.50;1.00;;;;;;5133318;27;20282;-71
2023/05/05 03:32:35;;;;;;;7.45;4.95;;;13.70;1.00;;;;;;5134493;27;20176;-71
2023/05/05 03:35:01;;;;;;;8.48;5.40;;;13.80;1.00;;;;;;5134587;27;20195;-71
2023/05/05 03:37:27;;;;;;;9.80;5.53;;;13.90;1.00;;;;;;5134792;27;20172;-71
2023/05/05 03:39:52;;;;;;;8.20;5.45;;;13.90;1.00;;;;;;5132999;28;20544;-71
2023/05/05 03:42:18;;;;;;;8.25;5.35;;;13.90;1.00;;;;;;5134438;27;20189;-71
2023/05/05 03:44:44;;;;;;;7.25;4.90;;;13.80;1.00;;;;;;5134527;27;20235;-71
2023/05/05 03:47:10;;;;;;;7.57;4.88;;;13.90;1.00;;;;;;5136522;27;20191;-71
2023/05/05 03:49:36;;;;;;;10.68;5.32;;;13.90;1.00;;;;;;5137441;27;20283;-71
2023/05/05 03:52:02;;;;;;;7.57;5.65;;;13.90;1.00;;;;;;5137218;27;20176;-70
2023/05/05 03:54:28;;;;;;;8.88;5.40;;;13.90;1.00;;;;;;5137171;27;20195;-71
2023/05/05 03:56:54;;;;;;;8.25;4.90;;;14.00;1.00;;;;;;5137292;27;20566;-71
2023/05/05 03:59:20;;;;;;;7.55;5.22;;;14.00;1.00;;;;;;5138262;27;20183;-71
2023/05/05 04:01:47;;;;;;;7.70;5.18;;;14.10;1.00;;;;;;5138590;27;20243;-71
2023/05/05 04:04:13;;;;;;;7.40;5.18;;;14.20;1.00;;;;;;5138402;27;20167;-71
2023/05/05 04:06:39;;;;;;;7.05;5.20;;;14.20;1.00;;;;;;5138335;27;20179;-71
2023/05/05 04:09:05;;;;;;;7.40;4.93;;;14.20;1.00;;;;;;5138444;27;20223;-71
2023/05/05 04:11:30;;;;;;;10.05;5.70;;;14.20;1.00;;;;;;5136963;27;20186;-71
2023/05/05 04:13:56;;;;;;;9.25;5.38;;;14.30;1.00;;;;;;5136923;27;20282;-71
2023/05/05 04:16:22;;;;;;;7.28;5.20;;;14.30;1.00;;;;;;5138346;27;20219;-71
2023/05/05 04:18:48;;;;;;;7.80;5.15;;;14.30;1.00;;;;;;5138120;27;20198;-71
2023/05/05 04:21:13;;;;;;;7.78;6.05;;;14.40;1.00;;;;;;5136856;27;20708;-71
2023/05/05 04:23:39;;;;;;;9.00;6.03;;;14.40;1.00;;;;;;5138686;27;20200;-72
2023/05/05 04:26:05;;;;;;;8.30;5.88;;;14.40;1.00;;;;;;5136657;27;20206;-71
2023/05/05 04:28:31;;;;;;;7.78;6.10;;;14.60;1.00;;;;;;5136962;27;20187;-71
2023/05/05 04:30:58;;;;;;;9.55;6.43;;;14.60;1.00;;;;;;5138039;27;20260;-71
2023/05/05 04:33:23;;;;;;;8.70;6.63;;;14.70;1.00;;;;;;5138246;27;20198;-70
2023/05/05 04:35:49;;;;;;;9.25;6.38;;;14.70;1.00;;;;;;5137793;27;20175;-71
2023/05/05 04:38:15;;;;;;;8.77;6.32;;;14.70;1.00;;;;;;5136449;27;20172;-71
2023/05/05 04:40:41;;;;;;;8.60;6.47;;;14.70;1.00;;;;;;5136269;27;20195;-70
2023/05/05 04:43:07;;;;;;;9.10;7.20;;;14.70;1.00;;;;;;5138081;27;20578;-71
2023/05/05 04:45:33;;;;;;;9.90;6.90;;;14.60;1.00;;;;;;5137639;27;20171;-71
2023/05/05 04:47:59;;;;;;;9.30;6.28;;;14.50;1.00;;;;;;5136134;27;20172;-71
2023/05/05 04:50:24;;;;;;;7.95;6.05;;;14.50;21.70;;;;;;5137378;27;20188;-71
2023/05/05 04:52:50;;;;;;;11.52;7.45;;;14.50;29.10;;;;;;5137529;27;20198;-71
2023/05/05 04:55:16;;;;;;;9.25;6.43;;;14.50;57.80;;;;;;5137274;27;20281;-71
2023/05/05 04:57:41;;;;;;;8.00;6.07;;;14.50;86.60;;;;;;5137403;27;20571;-71
2023/05/05 05:00:08;;;;;;;8.65;6.20;;;14.50;99.90;;;;;;5137518;27;20643;-71
2023/05/05 05:02:34;;;;;;;11.65;6.78;;;14.50;99.90;;;;;;5135922;27;20191;-71
2023/05/05 05:05:00;;;;;;;7.25;5.80;;;14.60;99.90;;;;;;5137356;27;20187;-71
2023/05/05 05:07:27;;;;;;;9.90;7.13;;;14.60;99.90;;;;;;5137762;27;20206;-71
2023/05/05 05:09:53;;;;;;;8.27;6.47;;;14.70;99.90;;;;;;5137667;27;20267;-71
2023/05/05 05:12:18;;;;;;;11.77;7.60;;;14.70;99.90;;;;;;5138219;27;20594;-71
2023/05/05 05:14:44;;;;;;;11.50;7.47;;;14.80;99.90;;;;;;5137020;27;20294;-71
2023/05/05 05:17:10;;;;;;;10.45;7.00;;;14.80;99.90;;;;;;5137774;27;20163;-71
2023/05/05 05:19:36;;;;;;;11.63;6.95;;;14.90;99.90;;;;;;5137077;27;20294;-71
2023/05/05 05:22:01;;;;;;;10.30;7.35;;;14.90;99.90;;;;;;5135681;27;20175;-71
2023/05/05 05:24:27;;;;;;;10.02;8.38;;;15.00;99.90;;;;;;5136851;27;20167;-71
2023/05/05 05:26:53;;;;;;;12.85;7.97;;;15.10;89.30;;;;;;5135512;27;20179;-71
2023/05/05 05:29:19;;;;;;;12.23;8.07;;;15.20;99.90;;;;;;5136592;27;20278;-71
2023/05/05 05:31:45;;;;;;;10.25;8.55;;;15.20;99.90;;;;;;5135423;27;20180;-71
2023/05/05 05:34:10;;;;;;;12.90;9.32;;;15.30;99.90;;;;;;5137097;27;20191;-71
2023/05/05 05:36:36;;;;;;;12.70;8.40;;;15.30;99.90;;;;;;5135192;27;20188;-71
2023/05/05 05:39:02;;;;;;;11.07;7.85;;;15.40;99.90;;;;;;5136307;27;20175;-71
2023/05/05 05:41:27;;;;;;;12.88;8.48;;;15.50;99.90;;;;;;5136496;27;20624;-71
2023/05/05 05:43:53;;;;;;;12.02;8.73;;;15.60;61.90;;;;;;5136560;27;20583;-71
2023/05/05 05:46:19;;;;;;;11.43;8.70;;;15.70;61.50;;;;;;5136310;27;20180;-71
2023/05/05 05:48:45;;;;;;;16.65;9.60;;;15.90;24.90;;;;;;5135101;27;20199;-71
2023/05/05 05:51:11;;;;;;;14.48;9.43;;;15.90;37.20;;;;;;5136800;27;20168;-71
2023/05/05 05:53:37;;;;;;;14.20;9.82;;;16.00;52.00;;;;;;5136072;27;20196;-70
2023/05/05 05:56:03;;;;;;;17.83;9.93;;;16.10;31.60;;;;;;5136065;27;20167;-71
2023/05/05 05:58:28;;;;;;;17.70;10.30;;;16.10;5.10;;;;;;5136089;27;20168;-71
2023/05/05 06:00:54;;;;;;;17.23;10.68;;;16.20;1.00;;;;;;5136072;27;20276;-71
2023/05/05 06:03:20;;;;;;;14.90;10.93;;;16.20;48.70;;;;;;5136093;27;20171;-71
2023/05/05 06:05:45;;;;;;;14.35;10.75;;;16.20;62.70;;;;;;5134709;27;20617;-71
2023/05/05 06:08:11;;;;;;;14.77;10.40;;;16.20;99.90;;;;;;5135475;27;20202;-71
2023/05/05 06:10:37;;;;;;;15.75;11.07;;;16.20;99.90;;;;;;5135662;27;20215;-71
2023/05/05 06:13:03;;;;;;;18.02;11.18;;;16.30;99.90;;;;;;5135759;27;20248;-71
2023/05/05 06:15:28;;;;;;;15.50;11.02;;;16.30;99.90;;;;;;5135788;27;20172;-71
2023/05/05 06:17:54;;;;;;;19.52;11.13;;;16.30;99.90;;;;;;5135770;27;20680;-71
2023/05/05 06:20:20;;;;;;;15.68;12.32;;;16.40;99.90;;;;;;5136039;27;20671;-70
2023/05/05 06:22:46;;;;;;;19.02;13.13;;;16.50;99.90;;;;;;5136181;27;20174;-70
2023/05/05 06:25:11;;;;;;;20.50;12.77;;;16.50;99.90;;;;;;5134409;27;20532;-70
2023/05/05 06:27:37;;;;;;;19.38;13.20;;;16.70;99.90;;;;;;5135730;27;20702;-70
2023/05/05 06:30:03;;;;;;;20.27;12.82;;;16.70;99.90;;;;;;5135817;27;20192;-70
2023/05/05 06:32:29;;;;;;;18.35;13.25;;;16.80;99.90;;;;;;5135388;27;20167;-69
2023/05/05 06:34:55;;;;;;;20.88;14.15;;;16.90;99.90;;;;;;5134233;27;20213;-70
2023/05/05 06:37:20;;;;;;;21.52;15.50;;;16.90;99.90;;;;;;5134351;27;20183;-70
2023/05/05 06:39:46;;;;;;;19.02;14.25;;;16.90;99.90;;;;;;5133883;27;20242;-70
2023/05/05 06:42:12;;;;;;;21.08;14.55;;;17.00;99.90;;;;;;5135535;27;20251;-70
2023/05/05 06:44:37;;;;;;;22.92;16.13;;;17.00;99.90;;;;;;5133896;27;20188;-70
2023/05/05 06:47:03;;;;;;;23.05;15.32;;;17.00;99.90;;;;;;5133877;27;20191;-70
2023/05/05 06:49:29;;;;;;;19.50;15.60;;;17.10;99.90;;;;;;5135043;27;20190;-70
2023/05/05 06:51:55;;;;;;;27.60;16.27;;;17.20;99.90;;;;;;5133938;27;20207;-70
2023/05/05 06:54:21;;;;;;;18.90;13.73;;;17.20;99.90;;;;;;5134954;27;20195;-70
2023/05/05 06:56:47;;;;;;;20.67;14.23;;;17.30;5.00;;;;;;5135556;27;20255;-70
2023/05/05 06:59:13;;;;;;;19.35;11.50;;;17.40;1.00;;;;;;5135048;27;20192;-70
2023/05/05 07:01:38;;;;;;;17.73;12.00;;;17.50;1.00;;;;;;5135321;27;20188;-70
2023/05/05 07:04:05;;;;;;;17.35;10.30;;;17.50;1.00;;;;;;5135054;27;20309;-70
2023/05/05 07:06:31;;;;;;;14.70;8.93;;;17.70;1.00;;;;;;5134984;27;20179;-70
2023/05/05 07:08:56;;;;;;;12.88;8.90;;;17.70;1.00;;;;;;5133530;27;20666;-70
2023/05/05 07:11:22;;;;;;;14.45;8.75;;;17.80;1.00;;;;;;5134790;27;20706;-69
2023/05/05 07:13:48;;;;;;;15.07;10.55;;;17.80;1.00;;;;;;5134806;27;20267;-69
2023/05/05 07:16:14;;;;;;;13.63;9.13;;;18.00;1.00;;;;;;5133411;27;20205;-69
2023/05/05 07:18:40;;;;;;;11.73;7.90;;;18.00;1.00;;;;;;5135309;27;20220;-70
2023/05/05 07:21:05;;;;;;;11.48;8.63;;;18.10;1.00;;;;;;5133993;27;20195;-69
2023/05/05 07:23:32;;;;;;;13.93;9.23;;;18.10;1.00;;;;;;5134540;27;20168;-69
2023/05/05 07:25:58;;;;;;;11.85;8.93;;;18.00;1.00;;;;;;5133086;27;20195;-69
2023/05/05 07:28:24;;;;;;;12.18;8.23;;;18.10;1.00;;;;;;5134819;27;20160;-69
2023/05/05 07:30:50;;;;;;;9.90;7.28;;;18.20;1.00;;;;;;5133162;27;20240;-69
2023/05/05 07:33:17;;;;;;;10.82;7.18;;;18.30;1.00;;;;;;5134642;27;20168;-70
2023/05/05 07:35:43;;;;;;;10.82;8.00;;;18.40;1.00;;;;;;5134556;27;20198;-69
2023/05/05 07:38:10;;;;;;;10.73;8.18;;;18.60;1.00;;;;;;5134539;27;20247;-69
2023/05/05 07:40:35;;;;;;;12.80;8.45;;;18.70;1.00;;;;;;5134227;27;20255;-69
2023/05/05 07:43:01;;;;;;;11.38;8.15;;;18.70;1.00;;;;;;5133297;28;20628;-70
2023/05/05 07:45:30;;;;;;;14.75;9.35;;;18.90;1.00;;;;;;5133197;28;20252;-69
2023/05/05 07:47:56;;;;;;;13.45;8.00;;;18.90;1.00;;;;;;5133915;28;20176;-70
2023/05/05 07:50:22;;;;;;;12.05;8.43;;;19.10;1.00;;;;;;5138767;27;20252;-72
2023/05/05 07:52:48;;;;;;;11.32;7.25;;;19.10;1.00;;;;;;5137680;27;20175;-70
2023/05/05 07:55:14;;;;;;;10.50;7.60;;;19.20;1.00;;;;;;5133082;28;20203;-70
2023/05/05 07:57:39;;;;;;;10.55;7.60;;;19.20;1.00;;;;;;5133271;28;20264;-71
2023/05/05 08:00:06;;;;;;;13.40;7.78;;;19.30;1.00;;;;;;5134478;27;20187;-71
2023/05/05 08:02:31;;;;;;;9.55;6.70;;;19.20;1.00;;;;;;5134558;27;20211;-71
2023/05/05 08:04:57;;;;;;;12.70;6.78;;;19.30;1.00;;;;;;5133177;28;20643;-71
2023/05/05 08:07:23;;;;;;;10.45;7.20;;;19.30;1.00;;;;;;5133047;28;20171;-71
2023/05/05 08:09:48;;;;;;;11.73;7.13;;;19.40;1.00;;;;;;5134127;27;20203;-71
2023/05/05 08:12:16;;;;;;;10.73;7.65;;;19.40;1.00;;;;;;5134876;27;20211;-71
2023/05/05 08:14:42;;;;;;;12.48;8.38;;;19.40;1.00;;;;;;5132853;28;20232;-71
2023/05/05 08:17:08;;;;;;;12.48;7.78;;;19.20;1.00;;;;;;5134351;27;20168;-71
2023/05/05 08:19:33;;;;;;;12.05;8.20;;;19.30;1.00;;;;;;5133998;27;20236;-71
2023/05/05 08:22:00;;;;;;;10.82;7.72;;;19.40;1.00;;;;;;5133963;27;20191;-69
2023/05/05 08:24:26;;;;;;;11.65;8.95;;;19.50;1.00;;;;;;5133772;27;20632;-69
2023/05/05 08:26:52;;;;;;;12.60;8.60;;;19.80;1.00;;;;;;5133878;28;20244;-69
2023/05/05 08:29:18;;;;;;;13.07;8.48;;;19.90;1.00;;;;;;5132331;28;20251;-70
2023/05/05 08:31:43;;;;;;;13.25;8.63;;;20.00;1.00;;;;;;5134710;27;20172;-69
2023/05/05 08:34:09;;;;;;;13.15;8.68;;;20.20;1.00;;;;;;5137893;27;20244;-69
2023/05/05 08:36:35;;;;;;;11.20;8.07;;;20.40;1.00;;;;;;5137580;27;20175;-69
2023/05/05 08:39:01;;;;;;;9.75;7.70;;;20.60;1.00;;;;;;5137925;27;20179;-69
2023/05/05 08:41:27;;;;;;;11.00;8.18;;;20.80;1.00;;;;;;5137391;27;20172;-68
2023/05/05 08:43:53;;;;;;;11.35;8.18;;;20.60;1.00;;;;;;5136093;27;20176;-69
2023/05/05 08:46:20;;;;;;;12.43;7.13;;;20.30;1.00;;;;;;5137602;27;20163;-69
2023/05/05 08:48:47;;;;;;;10.25;7.82;;;20.20;1.00;;;;;;5137421;27;20536;-68
2023/05/05 08:51:20;;;;;;;10.98;7.80;;;20.10;1.00;;;;;;5137399;27;20250;-70
2023/05/05 08:53:57;;;;;;;11.55;7.80;;;20.20;1.00;;;;;;5137132;27;20184;-70
2023/05/05 08:56:26;;;;;;;10.13;6.93;;;20.50;1.00;;;;;;5135821;27;20199;-70
2023/05/05 08:58:53;;;;;;;9.60;7.00;;;20.80;1.00;;;;;;5136194;27;20180;-72
2023/05/05 09:01:19;;;;;;;9.38;7.30;;;21.40;1.00;;;;;;5137071;27;20648;-70
2023/05/05 09:03:45;;;;;;;10.15;6.82;;;21.60;1.00;;;;;;5137955;27;20170;-73
2023/05/05 09:06:11;;;;;;;9.38;7.07;;;22.00;1.00;;;;;;5137322;27;20176;-73
2023/05/05 09:08:37;;;;;;;9.75;6.63;;;22.00;1.00;;;;;;5135804;27;20180;-73
2023/05/05 09:11:03;;;;;;;9.65;6.40;;;21.70;1.00;;;;;;5135640;27;20231;-72
2023/05/05 09:13:30;;;;;;;10.85;7.10;;;21.70;1.00;;;;;;5135500;27;20272;-68
2023/05/05 09:15:59;;;;;;;12.25;7.43;;;21.70;1.00;;;;;;5137179;27;20657;-68
2023/05/05 09:18:25;;;;;;;10.27;6.43;;;21.80;1.00;;;;;;5136723;27;20214;-68
2023/05/05 09:20:51;;;;;;;8.63;6.55;;;21.80;1.00;;;;;;5136575;27;20192;-68
2023/05/05 09:23:19;;;;;;;9.73;6.28;;;22.30;1.00;;;;;;5136796;27;20701;-70
2023/05/05 09:25:47;;;;;;;8.20;6.60;;;22.50;1.00;;;;;;5135140;27;20191;-68
2023/05/05 09:28:16;;;;;;;12.27;6.68;;;22.80;1.00;;;;;;5136527;27;20247;-68
2023/05/05 09:30:44;;;;;;;11.32;7.93;;;23.40;1.00;;;;;;5136387;27;20552;-68
2023/05/05 09:33:10;;;;;;;10.88;7.28;;;23.70;1.00;;;;;;5136350;27;20584;-68
2023/05/05 09:35:52;;;;;;;9.13;6.63;;;23.70;1.00;;;;;;5134998;27;20183;-68
2023/05/05 09:38:18;;;;;;;10.68;6.90;;;23.10;1.00;;;;;;5136951;27;20197;-69
2023/05/05 09:40:49;;;;;;;8.93;6.38;;;22.90;1.00;;;;;;5136103;27;20191;-69
2023/05/05 09:43:16;;;;;;;11.23;6.72;;;23.20;1.00;;;;;;5135858;27;20247;-72
2023/05/05 09:45:42;;;;;;;8.98;6.80;;;23.30;1.00;;;;;;5135764;27;20171;-72
2023/05/05 09:48:25;;;;;;;9.95;7.63;;;22.90;1.00;;;;;;5136109;27;20636;-72
2023/05/05 09:50:51;;;;;;;9.68;7.28;;;23.10;1.00;;;;;;5134997;27;20214;-72
2023/05/05 09:53:17;;;;;;;9.45;6.68;;;23.10;1.00;;;;;;5136501;27;20172;-70
2023/05/05 09:55:57;;;;;;;10.00;7.25;;;23.40;1.00;;;;;;5136876;27;20172;-72
2023/05/05 09:58:27;;;;;;;11.73;7.57;;;23.60;1.00;;;;;;5137693;27;20191;-71
2023/05/05 10:00:54;;;;;;;8.88;7.25;;;23.30;1.00;;;;;;5137561;27;20188;-75
2023/05/05 10:03:21;;;;;;;10.90;8.70;;;23.90;1.00;;;;;;5137067;27;20172;-68
2023/05/05 10:05:54;;;;;;;13.10;8.25;;;23.80;1.00;;;;;;5134581;27;20184;-68
2023/05/05 10:08:23;;;;;;;13.00;8.65;;;23.90;1.00;;;;;;5136490;27;20517;-69
2023/05/05 10:10:55;;;;;;;12.80;8.60;;;23.80;1.00;;;;;;5136085;27;20772;-75
2023/05/05 10:13:23;;;;;;;15.20;8.05;;;23.30;1.00;;;;;;5136243;27;20238;-77
2023/05/05 10:15:52;;;;;;;10.65;7.50;;;23.70;1.00;;;;;;5136421;27;20156;-73
2023/05/05 10:18:23;;;;;;;10.27;7.32;;;24.20;1.00;;;;;;5135933;27;20735;-73
2023/05/05 10:20:57;;;;;;;10.65;7.07;;;24.30;1.00;;;;;;5134302;27;20227;-73
2023/05/05 10:23:38;;;;;;;8.15;6.07;;;24.40;1.00;;;;;;5134450;27;20681;-73
2023/05/05 10:26:09;;;;;;;10.55;6.18;;;23.80;1.00;;;;;;5134317;27;20254;-73
2023/05/05 10:28:44;;;;;;;6.90;5.90;;;23.70;1.00;;;;;;5135806;27;20200;-73
2023/05/05 10:31:16;;;;;;;7.85;5.70;;;23.60;1.00;;;;;;5135367;27;20191;-73
2023/05/05 10:34:04;;;;;;;9.80;5.80;;;23.60;1.00;;;;;;5134265;27;20714;-73
2023/05/05 10:36:30;;;;;;;8.18;5.35;;;23.20;1.00;;;;;;5135701;27;20188;-73
2023/05/05 10:38:58;;;;;;;7.90;5.63;;;23.10;1.00;;;;;;5134031;27;20164;-73
2023/05/05 10:41:25;;;;;;;9.07;5.88;;;23.10;1.00;;;;;;5135202;27;20256;-73
2023/05/05 10:43:56;;;;;;;7.55;4.90;;;23.00;99.90;;;;;;5135180;27;20199;-73
2023/05/05 10:46:22;;;;;;;6.25;4.35;;;22.70;99.90;;;;;;5135623;27;20205;-73
2023/05/05 10:48:55;;;;;;;5.93;3.83;;;22.40;1.00;;;;;;5135012;27;20168;-73
2023/05/05 10:51:31;;;;;;;6.72;4.32;;;22.40;99.90;;;;;;5135691;27;20156;-73
2023/05/05 10:54:09;;;;;;;9.02;4.15;;;22.60;1.00;;;;;;5135177;27;20187;-73
2023/05/05 10:56:40;;;;;;;8.75;5.68;;;22.70;1.00;;;;;;5133533;27;20178;-72
2023/05/05 10:59:35;;;;;;;6.68;3.72;;;22.20;99.90;;;;;;5133634;27;20191;-72
2023/05/05 11:02:21;;;;;;;6.38;4.00;;;22.00;1.00;;;;;;5127009;27;20619;-73
2023/05/05 11:05:06;;;;;;;5.15;3.50;;;22.00;1.00;;;;;;5122916;27;20219;-73
2023/05/05 11:07:33;;;;;;;5.15;3.42;;;22.10;1.00;;;;;;5134882;27;20172;-73
2023/05/05 11:10:09;;;;;;;8.00;3.72;;;22.20;1.00;;;;;;5134646;27;20195;-73
2023/05/05 11:12:53;;;;;;;4.85;3.47;;;22.20;99.90;;;;;;5135475;27;20156;-73
2023/05/05 11:15:25;;;;;;;4.78;3.30;;;22.10;99.90;;;;;;5134836;27;20199;-73
2023/05/05 11:17:52;;;;;;;6.05;3.50;;;22.20;99.90;;;;;;5133458;27;20254;-73
2023/05/05 11:20:42;;;;;;;5.05;3.30;;;22.50;99.90;;;;;;5134651;27;20286;-73
2023/05/05 11:23:07;;;;;;;6.13;3.45;;;22.30;99.90;;;;;;5133096;27;20180;-73
2023/05/05 11:25:37;;;;;;;4.05;2.53;;;22.40;99.90;;;;;;5133171;27;20224;-73
2023/05/05 11:28:07;;;;;;;6.30;3.10;;;22.30;99.90;;;;;;5134664;27;20168;-73
2023/05/05 11:30:34;;;;;;;3.83;3.15;;;22.40;99.90;;;;;;5133217;27;20203;-73
2023/05/05 11:33:25;;;;;;;4.57;3.30;;;22.20;99.90;;;;;;5134755;27;20583;-72
2023/05/05 11:36:01;;;;;;;6.43;3.10;;;22.30;99.90;;;;;;5134493;27;20183;-73
2023/05/05 11:38:42;;;;;;;3.55;2.83;;;22.30;99.90;;;;;;5133235;27;20187;-72
2023/05/05 11:41:34;;;;;;;3.95;3.10;;;22.10;99.90;;;;;;5134526;27;20187;-73
2023/05/05 11:44:13;;;;;;;5.57;2.83;;;22.00;99.90;;;;;;5134518;27;20164;-73
2023/05/05 11:46:40;;;;;;;7.47;2.90;;;22.00;99.90;;;;;;5133489;28;20167;-73
2023/05/05 11:49:09;;;;;;;4.93;2.80;;;21.90;99.90;;;;;;5134680;27;20171;-69
2023/05/05 11:51:36;;;;;;;5.22;3.35;;;21.90;99.90;;;;;;5134408;27;20176;-69
2023/05/05 11:54:01;;;;;;;4.35;2.70;;;22.10;99.90;;;;;;5132842;28;20218;-69
2023/05/05 11:56:27;;;;;;;3.78;2.53;;;22.10;99.90;;;;;;5134179;27;20544;-69
2023/05/05 11:59:09;;;;;;;5.70;2.50;;;22.00;99.90;;;;;;5134518;27;20206;-72
2023/05/05 12:01:40;;;;;;;3.65;3.25;;;21.90;99.90;;;;;;5133207;28;20225;-72
2023/05/05 12:04:07;;;;;;;4.97;3.15;;;21.80;99.90;;;;;;5133081;28;20187;-69
2023/05/05 12:06:32;;;;;;;4.43;3.30;;;21.70;99.90;;;;;;5135612;27;20270;-73
2023/05/05 12:08:59;;;;;;;5.13;3.30;;;21.50;99.90;;;;;;5137858;27;20207;-73
2023/05/05 12:11:25;;;;;;;7.20;3.53;;;21.50;99.90;;;;;;5139161;27;20171;-72
2023/05/05 12:14:07;;;;;;;5.18;3.10;;;21.40;99.90;;;;;;5138868;27;20665;-73
2023/05/05 12:16:33;;;;;;;4.85;3.20;;;21.20;99.90;;;;;;5138958;27;20235;-71
2023/05/05 12:19:10;;;;;;;3.92;2.83;;;21.20;99.90;;;;;;5138577;27;20216;-71
2023/05/05 12:21:37;;;;;;;4.90;3.40;;;21.10;99.90;;;;;;5137057;27;20163;-71
2023/05/05 12:24:03;;;;;;;6.95;3.42;;;20.90;99.90;;;;;;5138942;27;20159;-70
2023/05/05 12:26:30;;;;;;;5.78;3.70;;;20.80;99.90;;;;;;5136812;27;20176;-70
2023/05/05 12:28:59;;;;;;;4.68;3.00;;;20.70;99.90;;;;;;5138783;27;20178;-70
2023/05/05 12:31:39;;;;;;;7.75;3.22;;;20.70;99.90;;;;;;5136923;27;20225;-70
2023/05/05 12:34:09;;;;;;;5.22;3.05;;;20.60;99.90;;;;;;5136685;27;20668;-70
2023/05/05 12:36:36;;;;;;;4.75;3.03;;;20.50;99.90;;;;;;5136595;27;20666;-70
2023/05/05 12:39:06;;;;;;;9.15;3.15;;;20.30;99.90;;;;;;5137934;27;20506;-70
2023/05/05 12:41:32;;;;;;;6.03;3.67;;;20.20;99.90;;;;;;5137522;27;20180;-70
2023/05/05 12:44:00;;;;;;;5.63;3.53;;;20.20;1.00;;;;;;5138217;27;20172;-70
2023/05/05 12:46:28;;;;;;;5.28;3.42;;;20.00;1.00;;;;;;5137694;27;20167;-70
2023/05/05 12:49:03;;;;;;;7.78;4.00;;;19.80;1.00;;;;;;5136266;27;20644;-70
2023/05/05 12:51:31;;;;;;;9.45;3.78;;;19.50;1.00;;;;;;5137953;27;20247;-69
2023/05/05 12:54:10;;;;;;;3.92;3.33;;;19.20;1.00;;;;;;5135851;27;20276;-70
2023/05/05 12:56:44;;;;;;;6.70;4.18;;;19.00;1.00;;;;;;5137460;27;20164;-69